Carlinville, IL (62626)

12:56 AM CDT op 01 oktober 2014 (GMT -0500)
Carlinville Firehouse | Change Station
CLOSE
Current Station
Persoonlijk weerstation
Location: Carlinville, IL
Geometrische hoogte: 623 ft
Nabije weerstations

Hoogte 623 ft 39.28 °N, 89.88 °W | Updated 3 seconds ago

Helder
Helder
60.4 °F
Voelt als 60.4 °F
N
0.0
Wind Variabel Wind van oost
Gusts 0.0 mijl/u

Vandaag
Hoog -- | Laag -- °F
--% Kans op neerslag
Gisteren
Hoog -- | Laag -- °F
Precip. -- inches
6:55 AM 6:42 PM
Wassende halvemaan, 44% visible
Druk 29.93 inches
Zicht 10.0 mijlen
Wolken Helder
Dauwpunt 55 °F
Vochtigheid 83%
Neerslag 0.00 inches
Dikte sneeuw Niet beschikbaar.
UV 0 van de 12
Pollen 3.60 van de 12
Ozon Goed
PM2.5 Goed
Flu Activity Niet beschikbaar.
METAR K3LF 010535Z AUTO 11006KT 10SM CLR 16/12 A2993 RMK AO2 T01560120

More Conditions Fewer Conditions

Druk 29.93 inches
Zicht 10.0 mijlen
Wolken Helder
Dauwpunt 55 °F
Vochtigheid 83%
Neerslag 0.00 inches
Dikte sneeuw Niet beschikbaar.
UV 0 van de 12
Pollen 3.60 van de 12
Ozon Goed
PM2.5 Goed
Flu Activity Niet beschikbaar.
METAR K3LF 010535Z AUTO 11006KT 10SM CLR 16/12 A2993 RMK AO2 T01560120

More Conditions Fewer Conditions

10-Day Weather Forecast

Almanac

Astronomie

Oct. 01, 2014 Opkomst Ondergang
Werkelijke tijd 6:55 AM CDT 6:42 PM CDT
Burgerlijke schemering 6:28 AM CDT 7:08 PM CDT
Nautische schemering 5:57 AM CDT 7:39 PM CDT
Astronomische schemering 5:26 AM CDT 8:11 PM CDT
Maan 1:55 PM CDT Geen maanondergang
Golflengte van het zichtbare licht 12h 39m
Daglengte
11h 46m
Tomorrow will be 2m 32s shorter.
Wassende halvemaan, 44% of the Moon is Illuminated
Vandaag
Wassende halvemaan
oktober 1
Eerste kwartier
oktober 8
Volle maan
oktober 15
Laatste kwartier
oktober 23
Nieuw

Extremen vandaag

State Highs State Lows

Community

WunderPhotos

Upload Photos

1,757,875 foto’s ge-upload!

Nearby

Luchtkwaliteit

  Luchtkwaliteit LK-index Verontreinigende stof
Gisteren Matig
OZONE
Gisteren Goed
PM2.5
Actueel Goed
PM2.5
Actueel Goed
OZONE
dinsdag Matig
PM2.5
woensdag Matig
PM2.5
donderdag Matig
PM2.5
vrijdag Goed
PM2.5
zaterdag Goed
PM2.5

Dikte sneeuw

Station Depth Geometrische hoogte
Er is geen verse sneeuw gerapporteerd.

Aardbevingen

Stad Distance Mag. Time & Date
No recent earthquake activity has been reported nearby.
Minimum magnitude displayed is 2.5.

Watertemperatuur langs de kust

Plaats Temperatuur
Geen meldingen van stations

Nabije weerstations